Duke Of Topsail — HQTU3 — position and weather

sailwx.info

Track history (hours):
 
Tides and Currents Weather Stations Pressure Air Temp Water Temp Dewpoint Dewpoint Depression Visibility Wind Speed Wind Dir Waves Ship Positions

Duke Of Topsail

Last reported at 2017-Dec-18 14:29 UTC. Time now 2017-Dec-18 15:00 UTC.
Position N 26°46' W 080°03'.

Length 72 m; draft 3.6 m.

Type: Cargo ship. MMSI: 334636000.

Date/timePositionNaut miles runAvg speedWind from/ knotsBaromVisibWave heightAir tempDewpointWater temp
2017-Dec-18 14:29N 26°46' W 080°03'0 0.0
2017-Dec-18 13:59N 26°46' W 080°03'0 0.0
2017-Dec-18 13:29N 26°46' W 080°03'0 0.0
2017-Dec-18 12:59N 26°46' W 080°03'0 0.0
2017-Dec-18 12:29N 26°46' W 080°03'0 0.0
2017-Dec-18 11:59N 26°46' W 080°03'0 0.0
2017-Dec-18 11:27N 26°46' W 080°03'1 1.1
2017-Dec-18 11:00N 26°46' W 080°03'2 5.0
2017-Dec-18 10:30N 26°47' W 079°60'4 7.6
2017-Dec-18 10:00N 26°49' W 079°56'3 5.6
2017-Dec-18 09:30N 26°51' W 079°54'3 6.4
2017-Dec-18 09:00N 26°53' W 079°51'  
2017-Dec-12 03:48N 26°57' W 079°46'413.6
2017-Dec-12 03:30N 26°54' W 079°50'612.7
2017-Dec-12 03:00N 26°50' W 079°55'611.6
2017-Dec-12 02:30N 26°46' W 080°00'3 5.4
2017-Dec-12 02:00N 26°46' W 080°03'0 0.0
2017-Dec-12 01:30N 26°46' W 080°03'0 0.0
2017-Dec-12 00:58N 26°46' W 080°03'0 0.0
2017-Dec-12 00:28N 26°46' W 080°03'0 0.0
2017-Dec-11 23:55N 26°46' W 080°03'0 0.0
2017-Dec-11 23:28N 26°46' W 080°03'0 0.0
2017-Dec-11 22:58N 26°46' W 080°03'0 0.0
2017-Dec-11 14:48N 26°46' W 080°03'0 0.0
2017-Dec-11 14:30N 26°46' W 080°03'0 0.0
2017-Dec-11 14:00N 26°46' W 080°03'0 0.0
2017-Dec-11 13:30N 26°46' W 080°03'0 0.0
2017-Dec-11 13:00N 26°46' W 080°03'0 0.0
2017-Dec-11 12:27N 26°46' W 080°03'0 0.0
2017-Dec-11 12:00N 26°46' W 080°03'0 0.0
2017-Dec-11 11:30N 26°46' W 080°03'1 1.4
2017-Dec-11 11:00N 26°46' W 080°02'3 5.9
2017-Dec-11 10:30N 26°45' W 079°59'4 8.8
2017-Dec-11 10:00N 26°44' W 079°55'5 9.1
2017-Dec-11 09:30N 26°42' W 079°50'5 9.2
2017-Dec-11 09:00N 26°41' W 079°45'  
Track history (hours):
 
Tides and Currents Weather Stations Pressure Air Temp Water Temp Dewpoint Dewpoint Depression Visibility Wind Speed Wind Dir Waves Ship Positions

Duke Of Topsail

Last reported at 2017-Dec-18 14:29 UTC. Time now 2017-Dec-18 15:00 UTC.
Position N 26°46' W 080°03'.

Length 72 m; draft 3.6 m.

Type: Cargo ship. MMSI: 334636000.

Date/timePositionNaut miles runAvg speedWind from/ knotsBaromVisibWave heightAir tempDewpointWater temp
2017-Dec-18 14:29N 26°46' W 080°03'0 0.0
2017-Dec-18 13:59N 26°46' W 080°03'0 0.0
2017-Dec-18 13:29N 26°46' W 080°03'0 0.0
2017-Dec-18 12:59N 26°46' W 080°03'0 0.0
2017-Dec-18 12:29N 26°46' W 080°03'0 0.0
2017-Dec-18 11:59N 26°46' W 080°03'0 0.0
2017-Dec-18 11:27N 26°46' W 080°03'1 1.1
2017-Dec-18 11:00N 26°46' W 080°03'2 5.0
2017-Dec-18 10:30N 26°47' W 079°60'4 7.6
2017-Dec-18 10:00N 26°49' W 079°56'3 5.6
2017-Dec-18 09:30N 26°51' W 079°54'3 6.4
2017-Dec-18 09:00N 26°53' W 079°51'  
2017-Dec-12 03:48N 26°57' W 079°46'413.6
2017-Dec-12 03:30N 26°54' W 079°50'612.7
2017-Dec-12 03:00N 26°50' W 079°55'611.6
2017-Dec-12 02:30N 26°46' W 080°00'3 5.4
2017-Dec-12 02:00N 26°46' W 080°03'0 0.0
2017-Dec-12 01:30N 26°46' W 080°03'0 0.0
2017-Dec-12 00:58N 26°46' W 080°03'0 0.0
2017-Dec-12 00:28N 26°46' W 080°03'0 0.0
2017-Dec-11 23:55N 26°46' W 080°03'0 0.0
2017-Dec-11 23:28N 26°46' W 080°03'0 0.0
2017-Dec-11 22:58N 26°46' W 080°03'0 0.0
2017-Dec-11 14:48N 26°46' W 080°03'0 0.0
2017-Dec-11 14:30N 26°46' W 080°03'0 0.0
2017-Dec-11 14:00N 26°46' W 080°03'0 0.0
2017-Dec-11 13:30N 26°46' W 080°03'0 0.0
2017-Dec-11 13:00N 26°46' W 080°03'0 0.0
2017-Dec-11 12:27N 26°46' W 080°03'0 0.0
2017-Dec-11 12:00N 26°46' W 080°03'0 0.0
2017-Dec-11 11:30N 26°46' W 080°03'1 1.4
2017-Dec-11 11:00N 26°46' W 080°02'3 5.9
2017-Dec-11 10:30N 26°45' W 079°59'4 8.8
2017-Dec-11 10:00N 26°44' W 079°55'5 9.1
2017-Dec-11 09:30N 26°42' W 079°50'5 9.2
2017-Dec-11 09:00N 26°41' W 079°45'  

Dump ship's entire track history